Aeroporto :
LOGIN :

Iscrizione | Disclaimer

   EN    FR    IT 

 










Sommario :    VFR   VFR Marginale   IFR   IFR Intensivo   IFR Molto Intensivo
Visibilità : 
Base nubi : 
>= 8 km
>= 3000ft
5 / 8 km
1000 / 3000 ft
1500m / 5 km
500 / 1000 ft
800 / 1500m
200 / 500 ft
< 800m
< 200 ft
Simboli :   Temporali  Nebbia  Neve Forte  Precipitazioni Forti  Vento > 20 kt
SIGMETs :   Varie  Temporali  Ghiacco  Turbolenza  Onda orograficha  Ceneri Vulcaniche







- Altitudine del aeroporto : 14 ft
- Codice IATA : BRE


EDDW - Bremen Neuenland

ULTIMO METAR :
  • 181220Z VRB03KT 9999 SCT045CB 28/17 Q1013 TEMPO TSRA

METARs OBSOLETI :
  • 181150Z 12006KT 070V150 9999 SCT035CB 26/18 Q1014 RETSRA TEMPO 19020G30KT TSRA
  • 181120Z 19006KT 130V240 9999 TS FEW048CB 27/14 Q1014 TEMPO 19020G30KT TSRA
  • 181050Z 12009KT 080V170 CAVOK 28/16 Q1014 NOSIG
  • 181020Z 12006KT 080V160 CAVOK 27/16 Q1014 NOSIG
  • 180950Z 11005KT 050V150 CAVOK 27/15 Q1015 NOSIG

TAF TAF EDDW
Valido dal 18 a 12 ore il 19 a 12 ore UTC


181100Z 1812/1912 12005KT CAVOK
BECMG 1812/1814 18006KT
PROB30
TEMPO 1812/1820 22015G35KT TSRA BKN030CB
BECMG 1815/1817 32005KT
BECMG 1819/1821 VRB03KT
PROB30
TEMPO 1823/1904 3500 BCFG
BECMG 1904/1906 10006KT
BECMG 1910/1912 18008KT
Nessun NOTAM noto per questo aeroporto.



MetMap, La meteo Aeronautica in un colpo d'occhio ! - Copyright ORBIFLY Dicembre 2007 - Disclaimer

ORBIFLY MET'MAP TEAM :

Programmazione e sviluppo : Alexandra Zaïnal
Concezione e sviluppo : Baudouin d'Aumeries
Co-Programmazione e sviluppo : Marc-Olivier Méhu
Supporto tecnico e logistico : Manuel Goepfert
Aiuto per la traduzione : Arnaldo La Scala

Contatto : metmap@orbifly.com




FONTI E CREDITI :

   NOAA